createdAt,value
2023-03-29T00:01:53.815Z,2.60
2023-03-29T00:04:21.750Z,2.23
2023-03-29T00:06:50.564Z,2.67
2023-03-29T00:09:19.949Z,2.38
2023-03-29T00:11:49.096Z,2.50
2023-03-29T00:14:16.919Z,2.70
2023-03-29T00:16:46.877Z,1.98
2023-03-29T00:19:14.826Z,2.20
2023-03-29T00:21:42.635Z,2.53
2023-03-29T00:24:10.394Z,2.20
2023-03-29T00:26:38.222Z,2.70
2023-03-29T00:29:07.354Z,2.40
2023-03-29T00:31:35.006Z,2.67
2023-03-29T00:34:02.763Z,2.50
2023-03-29T00:36:30.470Z,2.03
2023-03-29T00:38:58.174Z,2.33
2023-03-29T00:41:26.085Z,2.57
2023-03-29T00:43:59.801Z,2.35
2023-03-29T00:46:30.945Z,2.27
2023-03-29T00:49:03.725Z,2.33
2023-03-29T00:51:35.835Z,2.93
2023-03-29T00:54:06.596Z,2.27
2023-03-29T00:56:37.475Z,2.70
2023-03-29T00:59:07.532Z,2.60
2023-03-29T01:01:42.948Z,3.13
2023-03-29T01:04:18.534Z,2.47
2023-03-29T01:06:49.689Z,2.50
2023-03-29T01:09:21.108Z,2.57
2023-03-29T01:11:53.420Z,2.53
2023-03-29T01:14:28.318Z,2.90
2023-03-29T01:16:57.500Z,2.97
2023-03-29T01:19:31.975Z,2.77
2023-03-29T01:22:06.065Z,2.87
2023-03-29T01:24:54.067Z,2.47
2023-03-29T01:27:35.141Z,2.90
2023-03-29T01:30:06.654Z,2.80
2023-03-29T01:32:38.357Z,2.77
2023-03-29T01:35:12.062Z,2.90
2023-03-29T01:37:44.977Z,2.90
2023-03-29T01:40:13.183Z,2.77
2023-03-29T01:42:53.299Z,2.85
2023-03-29T01:45:25.909Z,2.90
2023-03-29T01:48:01.130Z,2.80
2023-03-29T01:50:37.814Z,3.10
2023-03-29T01:53:10.394Z,3.00
2023-03-29T01:55:42.535Z,2.67
2023-03-29T01:58:14.666Z,2.87
2023-03-29T02:00:43.774Z,3.10
2023-03-29T02:03:15.072Z,2.90
2023-03-29T02:05:43.532Z,3.17
2023-03-29T02:08:14.311Z,3.20
2023-03-29T02:10:42.229Z,3.40
2023-03-29T02:13:11.462Z,3.08
2023-03-29T02:15:39.803Z,3.30
2023-03-29T02:18:08.182Z,3.05
2023-03-29T02:20:39.134Z,3.55
2023-03-29T02:23:14.317Z,3.10
2023-03-29T02:25:43.769Z,3.50
2023-03-29T02:28:14.055Z,3.23
2023-03-29T02:30:51.262Z,3.40
2023-03-29T02:33:23.957Z,2.97
2023-03-29T02:35:56.737Z,3.73
2023-03-29T02:38:27.758Z,2.97
2023-03-29T02:40:58.027Z,3.00
2023-03-29T02:43:30.028Z,3.50
2023-03-29T02:45:58.005Z,3.00
2023-03-29T02:48:29.355Z,3.13
2023-03-29T02:51:02.449Z,3.60
2023-03-29T02:53:35.801Z,3.17
2023-03-29T02:56:04.480Z,3.40
2023-03-29T02:58:33.480Z,3.28
2023-03-29T03:01:03.207Z,3.40
2023-03-29T03:03:31.848Z,3.53
2023-03-29T03:06:01.671Z,4.00
2023-03-29T03:08:29.873Z,3.47
2023-03-29T03:10:58.241Z,3.42
2023-03-29T03:13:26.054Z,3.30
2023-03-29T03:15:55.273Z,2.93
2023-03-29T03:18:23.390Z,3.50
2023-03-29T03:20:58.063Z,3.17
2023-03-29T03:23:26.749Z,3.53
2023-03-29T03:25:55.235Z,3.58
2023-03-29T03:28:24.370Z,3.60
2023-03-29T03:30:52.310Z,3.83
2023-03-29T03:33:21.494Z,3.70
2023-03-29T03:35:49.216Z,3.83
2023-03-29T03:38:16.928Z,3.53
2023-03-29T03:40:44.908Z,3.90
2023-03-29T03:43:12.635Z,3.40
2023-03-29T03:45:40.639Z,3.87
2023-03-29T03:48:08.748Z,3.47
2023-03-29T03:50:38.303Z,3.60
2023-03-29T03:53:05.983Z,3.67
2023-03-29T03:55:34.501Z,3.97
2023-03-29T03:58:02.245Z,4.25
2023-03-29T04:00:29.968Z,3.70
2023-03-29T04:02:57.741Z,4.13
2023-03-29T04:05:25.519Z,3.63
2023-03-29T04:07:56.039Z,7.83
2023-03-29T04:10:23.828Z,3.70
2023-03-29T04:12:51.517Z,4.07
2023-03-29T04:15:20.322Z,4.03
2023-03-29T04:20:15.840Z,3.50
2023-03-29T04:22:43.563Z,4.30
2023-03-29T04:25:12.693Z,3.47
2023-03-29T04:27:40.845Z,3.73
2023-03-29T04:30:09.675Z,4.15
2023-03-29T04:35:05.933Z,3.80
2023-03-29T04:37:34.092Z,3.78
2023-03-29T04:40:04.878Z,3.80
2023-03-29T04:42:34.209Z,4.00
2023-03-29T04:45:02.071Z,4.00
2023-03-29T04:47:30.080Z,4.28
2023-03-29T04:49:57.997Z,5.30
2023-03-29T04:52:26.434Z,4.03
2023-03-29T04:54:54.171Z,3.95
2023-03-29T04:57:21.875Z,4.27
2023-03-29T04:59:51.357Z,4.17
2023-03-29T05:02:20.524Z,4.27
2023-03-29T05:04:48.283Z,4.30
2023-03-29T05:07:17.616Z,4.03
2023-03-29T05:09:45.316Z,6.10
2023-03-29T05:12:13.159Z,4.53
2023-03-29T05:14:41.030Z,4.60
2023-03-29T05:17:10.116Z,4.27
2023-03-29T05:19:38.402Z,4.47
2023-03-29T05:22:06.589Z,4.15
2023-03-29T05:24:34.472Z,4.22
2023-03-29T05:27:02.278Z,4.40
2023-03-29T05:29:32.025Z,4.17
2023-03-29T05:32:00.503Z,4.37
2023-03-29T05:34:30.883Z,4.70
2023-03-29T05:36:59.111Z,4.20
2023-03-29T05:39:26.944Z,4.63
2023-03-29T05:41:55.048Z,4.70
2023-03-29T05:44:23.030Z,4.75
2023-03-29T05:46:50.736Z,4.53
2023-03-29T05:49:19.119Z,4.50
2023-03-29T05:51:48.229Z,4.35
2023-03-29T05:54:16.464Z,4.17
2023-03-29T05:56:44.420Z,5.15
2023-03-29T05:59:13.744Z,4.55
2023-03-29T06:01:42.638Z,4.63
2023-03-29T06:06:38.640Z,4.40
2023-03-29T06:09:07.915Z,4.23
2023-03-29T06:11:35.959Z,4.70
2023-03-29T06:14:03.848Z,4.32
2023-03-29T06:16:32.679Z,4.30
2023-03-29T06:21:28.528Z,4.90
2023-03-29T06:23:56.331Z,4.20
2023-03-29T06:26:27.550Z,5.45
2023-03-29T06:28:55.279Z,5.13
2023-03-29T06:31:23.170Z,4.87
2023-03-29T06:33:51.049Z,4.78
2023-03-29T06:36:20.229Z,4.87
2023-03-29T06:38:47.923Z,4.90
2023-03-29T06:41:16.034Z,4.43
2023-03-29T06:43:45.117Z,5.07
2023-03-29T06:46:13.403Z,4.93
2023-03-29T06:48:42.044Z,5.65
2023-03-29T06:51:09.922Z,5.43
2023-03-29T06:53:38.058Z,5.97
2023-03-29T06:56:09.139Z,5.28
2023-03-29T06:58:37.377Z,5.40
2023-03-29T07:01:07.480Z,5.75
2023-03-29T07:03:36.293Z,5.23
2023-03-29T07:08:43.289Z,5.70
2023-03-29T07:11:13.193Z,5.77
2023-03-29T07:13:42.383Z,6.10
2023-03-29T07:16:13.791Z,5.70
2023-03-29T07:18:41.909Z,5.57
2023-03-29T07:21:10.567Z,5.50
2023-03-29T07:23:38.308Z,5.85
2023-03-29T07:26:07.606Z,5.90
2023-03-29T07:28:37.456Z,5.87
2023-03-29T07:31:07.631Z,6.00
2023-03-29T07:33:36.902Z,5.97
2023-03-29T07:36:06.031Z,5.67
2023-03-29T07:38:33.756Z,6.10
2023-03-29T07:41:05.431Z,6.10
2023-03-29T07:43:34.205Z,5.77
2023-03-29T07:46:02.668Z,5.88
2023-03-29T07:48:30.486Z,6.10
2023-03-29T07:50:59.836Z,6.13
2023-03-29T07:53:29.613Z,6.27
2023-03-29T07:55:57.634Z,6.23
2023-03-29T07:58:25.499Z,6.47
2023-03-29T08:00:53.231Z,6.32
2023-03-29T08:03:21.273Z,6.47
2023-03-29T08:05:48.949Z,6.78
2023-03-29T08:08:18.095Z,6.80
2023-03-29T08:10:45.866Z,7.10
2023-03-29T08:13:13.771Z,6.73
2023-03-29T08:15:46.160Z,7.37
2023-03-29T08:18:14.080Z,7.00
2023-03-29T08:20:42.629Z,7.47
2023-03-29T08:23:10.777Z,7.93
2023-03-29T08:25:39.932Z,6.85
2023-03-29T08:28:07.582Z,7.53
2023-03-29T08:30:35.342Z,7.60
2023-03-29T08:33:03.145Z,8.07
2023-03-29T08:35:31.121Z,7.60
2023-03-29T08:37:58.856Z,7.47
2023-03-29T08:40:29.974Z,7.57
2023-03-29T08:43:15.907Z,7.63
2023-03-29T08:45:53.143Z,8.10
2023-03-29T08:48:28.442Z,7.93
2023-03-29T08:51:01.423Z,8.60
2023-03-29T08:53:34.688Z,8.57
2023-03-29T08:56:08.776Z,8.03
2023-03-29T08:58:39.209Z,8.20
2023-03-29T09:01:11.327Z,8.20
2023-03-29T09:03:43.966Z,8.00
2023-03-29T09:06:13.630Z,9.50
2023-03-29T09:08:43.459Z,8.07
2023-03-29T09:11:38.065Z,7.80
2023-03-29T09:14:26.060Z,8.03
2023-03-29T09:17:02.140Z,8.95
2023-03-29T09:19:38.766Z,8.93
2023-03-29T09:22:17.500Z,8.40
2023-03-29T09:27:27.645Z,8.03
2023-03-29T09:30:08.667Z,8.97
2023-03-29T09:32:44.507Z,8.93
2023-03-29T09:35:19.277Z,8.73
2023-03-29T09:37:49.189Z,9.17
2023-03-29T09:40:20.563Z,9.13
2023-03-29T09:42:50.584Z,8.73
2023-03-29T09:45:19.908Z,8.83
2023-03-29T09:47:52.034Z,9.60
2023-03-29T09:50:31.044Z,9.87
2023-03-29T09:52:59.900Z,10.00
2023-03-29T09:55:31.094Z,9.45
2023-03-29T09:58:02.515Z,9.20
2023-03-29T10:00:31.992Z,9.93
2023-03-29T10:03:00.349Z,8.57
2023-03-29T10:05:37.877Z,9.43
2023-03-29T10:08:19.779Z,8.67
2023-03-29T10:10:48.629Z,9.17
2023-03-29T10:13:22.949Z,9.55
2023-03-29T10:16:04.296Z,10.57
2023-03-29T10:18:33.796Z,9.47
2023-03-29T10:21:03.803Z,10.00
2023-03-29T10:23:34.306Z,10.57
2023-03-29T10:26:04.204Z,11.37
2023-03-29T10:28:33.182Z,10.10
2023-03-29T10:31:06.013Z,10.47
2023-03-29T10:33:36.992Z,10.83
2023-03-29T10:36:07.919Z,9.97
2023-03-29T10:38:37.579Z,9.00
2023-03-29T10:41:08.040Z,9.83
2023-03-29T10:43:38.651Z,9.13
2023-03-29T10:46:13.150Z,9.73
2023-03-29T10:48:46.258Z,10.37
2023-03-29T10:51:16.149Z,10.33
2023-03-29T10:53:44.196Z,9.97
2023-03-29T10:56:30.726Z,9.93
2023-03-29T10:59:14.384Z,9.47
2023-03-29T11:01:49.738Z,9.03
2023-03-29T11:04:29.432Z,9.07
2023-03-29T11:07:14.059Z,9.40
2023-03-29T11:09:51.261Z,9.13
2023-03-29T11:12:26.472Z,8.93
2023-03-29T11:15:10.944Z,9.90
2023-03-29T11:17:52.712Z,9.57
2023-03-29T11:20:33.824Z,10.20
2023-03-29T11:23:16.446Z,10.27
2023-03-29T11:25:54.843Z,9.73
2023-03-29T11:28:31.307Z,8.82
2023-03-29T11:31:06.809Z,8.60
2023-03-29T11:33:51.018Z,8.83
2023-03-29T11:36:25.164Z,8.13
2023-03-29T11:39:05.212Z,8.97
2023-03-29T11:41:36.191Z,8.77
2023-03-29T11:44:07.476Z,9.50
2023-03-29T11:46:40.116Z,8.83
2023-03-29T11:49:16.012Z,9.67
2023-03-29T11:51:47.190Z,9.70
2023-03-29T11:54:22.838Z,10.30
2023-03-29T11:56:55.917Z,11.63
2023-03-29T11:59:29.645Z,11.83
2023-03-29T12:02:03.374Z,11.37
2023-03-29T12:04:38.542Z,11.93
2023-03-29T12:07:14.126Z,12.50
2023-03-29T12:09:49.518Z,12.60
2023-03-29T12:12:25.124Z,12.63
2023-03-29T12:15:02.456Z,13.67
2023-03-29T12:17:35.351Z,12.27
2023-03-29T12:20:12.424Z,12.67
2023-03-29T12:22:41.364Z,11.57
2023-03-29T12:25:18.419Z,10.97
2023-03-29T12:28:00.179Z,12.05
2023-03-29T12:30:45.586Z,12.20
2023-03-29T12:33:35.987Z,12.90
2023-03-29T12:36:19.015Z,13.63
2023-03-29T12:38:48.204Z,12.97
2023-03-29T12:41:19.071Z,13.80
2023-03-29T12:43:48.111Z,14.17
2023-03-29T12:46:18.748Z,13.27
2023-03-29T12:48:50.313Z,12.70
2023-03-29T12:51:22.874Z,13.07
2023-03-29T12:53:53.270Z,14.30
2023-03-29T12:56:23.747Z,13.20
2023-03-29T12:58:56.166Z,13.40
2023-03-29T13:01:29.862Z,12.13
2023-03-29T13:04:14.714Z,12.53
2023-03-29T13:07:04.067Z,12.73
2023-03-29T13:09:36.704Z,13.03
2023-03-29T13:12:27.060Z,12.60
2023-03-29T13:14:57.720Z,11.60
2023-03-29T13:17:37.064Z,10.60
2023-03-29T13:20:21.793Z,10.60
2023-03-29T13:23:04.208Z,10.60
2023-03-29T13:25:54.134Z,10.57
2023-03-29T13:28:27.654Z,9.87
2023-03-29T13:31:00.916Z,10.00
2023-03-29T13:33:48.354Z,10.60
2023-03-29T13:36:24.317Z,10.53
2023-03-29T13:38:55.337Z,10.37
2023-03-29T13:41:32.203Z,9.53
2023-03-29T13:44:00.884Z,9.77
2023-03-29T13:49:16.391Z,9.70
2023-03-29T13:52:01.226Z,11.47
2023-03-29T13:54:33.917Z,10.70
2023-03-29T13:57:07.719Z,9.93
2023-03-29T13:59:43.385Z,10.63
2023-03-29T14:02:18.592Z,10.33
2023-03-29T14:04:49.357Z,10.70
2023-03-29T14:07:26.046Z,10.47
2023-03-29T14:09:58.641Z,11.10
2023-03-29T14:12:31.152Z,10.70
2023-03-29T14:15:03.528Z,11.67
2023-03-29T14:17:31.994Z,11.77
2023-03-29T14:20:01.548Z,12.88
2023-03-29T14:22:33.525Z,12.43
2023-03-29T14:25:09.558Z,13.03
2023-03-29T14:27:37.814Z,12.07
2023-03-29T14:30:21.623Z,12.57
2023-03-29T14:32:51.253Z,13.80
2023-03-29T14:35:19.185Z,12.70
2023-03-29T14:37:48.948Z,13.27
2023-03-29T14:40:21.068Z,13.90
2023-03-29T14:42:50.886Z,13.20
2023-03-29T14:45:23.260Z,14.23
2023-03-29T14:47:51.895Z,13.80
2023-03-29T14:52:52.627Z,14.10
2023-03-29T14:55:23.908Z,13.17
2023-03-29T14:57:54.237Z,13.80
2023-03-29T15:00:30.040Z,14.03
2023-03-29T15:03:00.483Z,13.63
2023-03-29T15:05:35.652Z,13.53
2023-03-29T15:08:03.996Z,13.40
2023-03-29T15:10:35.882Z,12.85
2023-03-29T15:13:05.530Z,12.97
2023-03-29T15:15:35.645Z,13.87
2023-03-29T15:18:04.918Z,13.57
2023-03-29T15:20:35.367Z,13.83
2023-03-29T15:23:05.382Z,13.90
2023-03-29T15:25:39.294Z,13.17
2023-03-29T15:28:07.596Z,13.63
2023-03-29T15:30:37.577Z,13.57
2023-03-29T15:33:23.015Z,14.17
2023-03-29T15:35:53.449Z,13.03
2023-03-29T15:38:27.641Z,11.80
2023-03-29T15:41:02.725Z,12.80
2023-03-29T15:43:30.977Z,12.97
2023-03-29T15:45:59.033Z,13.55
2023-03-29T15:48:28.809Z,12.52
2023-03-29T15:50:59.030Z,12.23
2023-03-29T15:53:29.270Z,12.60
2023-03-29T15:56:01.343Z,11.43
2023-03-29T15:58:33.636Z,12.57
2023-03-29T16:01:12.327Z,11.87
2023-03-29T16:03:41.581Z,11.43
2023-03-29T16:06:12.298Z,11.53
2023-03-29T16:08:41.398Z,10.63
2023-03-29T16:11:09.212Z,10.40
2023-03-29T16:13:38.356Z,10.18
2023-03-29T16:16:07.325Z,9.30
2023-03-29T16:18:35.785Z,9.03
2023-03-29T16:21:03.754Z,9.07
2023-03-29T16:23:31.649Z,8.70
2023-03-29T16:25:59.286Z,7.80
2023-03-29T16:28:28.135Z,8.50
2023-03-29T16:30:57.186Z,8.57
2023-03-29T16:33:24.891Z,8.40
2023-03-29T16:35:53.016Z,8.77
2023-03-29T16:38:21.761Z,7.68
2023-03-29T16:43:18.711Z,7.13
2023-03-29T16:45:46.542Z,7.20
2023-03-29T16:48:19.680Z,7.22
2023-03-29T16:50:49.474Z,6.67
2023-03-29T16:53:18.233Z,6.50
2023-03-29T16:58:15.442Z,6.05
2023-03-29T17:00:46.343Z,5.83
2023-03-29T17:03:17.359Z,5.83
2023-03-29T17:05:48.320Z,5.37
2023-03-29T17:08:16.430Z,5.50
2023-03-29T17:10:44.662Z,4.82
2023-03-29T17:13:12.971Z,5.45
2023-03-29T17:15:41.026Z,4.88
2023-03-29T17:18:09.118Z,4.68
2023-03-29T17:20:40.967Z,4.70
2023-03-29T17:23:09.417Z,4.77
2023-03-29T17:25:37.235Z,4.75
2023-03-29T17:28:05.745Z,4.75
2023-03-29T17:30:35.058Z,4.28
2023-03-29T17:33:03.461Z,4.40
2023-03-29T17:35:33.280Z,4.07
2023-03-29T17:38:02.993Z,4.07
2023-03-29T17:40:30.831Z,4.50
2023-03-29T17:42:58.567Z,6.13
2023-03-29T17:45:26.508Z,4.50
2023-03-29T17:47:54.322Z,4.35
2023-03-29T17:50:22.368Z,4.10
2023-03-29T17:52:50.295Z,4.07
2023-03-29T17:55:21.078Z,4.45
2023-03-29T17:57:49.827Z,4.03
2023-03-29T18:02:45.918Z,6.05
2023-03-29T18:05:13.859Z,5.47
2023-03-29T18:07:41.688Z,5.43
2023-03-29T18:10:10.240Z,6.07
2023-03-29T18:12:39.401Z,6.47
2023-03-29T18:15:08.419Z,6.53
2023-03-29T18:17:36.771Z,5.43
2023-03-29T18:20:11.628Z,6.40
2023-03-29T18:22:40.068Z,6.30
2023-03-29T18:25:09.526Z,4.68
2023-03-29T18:27:39.099Z,4.37
2023-03-29T18:30:09.366Z,4.40
2023-03-29T18:32:37.649Z,3.83
2023-03-29T18:35:06.306Z,4.35
2023-03-29T18:37:34.191Z,4.65
2023-03-29T18:40:02.040Z,4.72
2023-03-29T18:42:29.854Z,5.00
2023-03-29T18:44:59.289Z,5.82
2023-03-29T18:47:27.174Z,6.23
2023-03-29T18:49:55.148Z,5.70
2023-03-29T18:52:23.342Z,6.45
2023-03-29T18:54:51.431Z,5.20
2023-03-29T18:57:19.328Z,5.82
2023-03-29T18:59:47.196Z,6.45
2023-03-29T19:02:16.792Z,5.40
2023-03-29T19:04:44.738Z,5.43
2023-03-29T19:07:12.683Z,6.15
2023-03-29T19:09:41.791Z,5.55
2023-03-29T19:12:10.129Z,6.53
2023-03-29T19:14:38.343Z,6.40
2023-03-29T19:17:06.295Z,5.50
2023-03-29T19:19:35.887Z,6.00
2023-03-29T19:22:03.738Z,6.20
2023-03-29T19:24:31.557Z,5.45
2023-03-29T19:26:59.358Z,5.73
2023-03-29T19:29:27.285Z,5.90
2023-03-29T19:31:56.823Z,5.90
2023-03-29T19:34:24.657Z,6.67
2023-03-29T19:36:55.192Z,5.13
2023-03-29T19:39:25.268Z,5.07
2023-03-29T19:41:52.997Z,5.30
2023-03-29T19:44:22.153Z,5.20
2023-03-29T19:46:49.931Z,5.33
2023-03-29T19:49:17.752Z,5.28
2023-03-29T19:51:46.064Z,5.53
2023-03-29T19:54:17.262Z,5.20
2023-03-29T19:56:45.202Z,6.03
2023-03-29T19:59:14.896Z,5.07
2023-03-29T20:01:50.641Z,5.43
2023-03-29T20:04:18.899Z,4.70
2023-03-29T20:06:46.987Z,4.85
2023-03-29T20:09:16.559Z,5.32
2023-03-29T20:11:44.889Z,5.50
2023-03-29T20:14:12.775Z,5.63
2023-03-29T20:16:41.888Z,5.22
2023-03-29T20:19:10.822Z,5.47
2023-03-29T20:21:38.535Z,5.83
2023-03-29T20:24:08.730Z,5.60
2023-03-29T20:26:38.279Z,5.67
2023-03-29T20:29:08.143Z,5.77
2023-03-29T20:31:35.957Z,5.43
2023-03-29T20:34:03.870Z,6.07
2023-03-29T20:36:31.980Z,6.03
2023-03-29T20:39:01.263Z,5.45
2023-03-29T20:41:29.137Z,5.47
2023-03-29T20:43:59.794Z,5.97
2023-03-29T20:46:33.522Z,5.47
2023-03-29T20:49:01.702Z,6.40
2023-03-29T20:51:31.927Z,5.28
2023-03-29T20:54:04.367Z,5.23
2023-03-29T20:56:33.854Z,5.00
2023-03-29T20:59:04.063Z,5.47
2023-03-29T21:01:31.988Z,5.57
2023-03-29T21:03:59.858Z,5.45
2023-03-29T21:06:28.199Z,5.23
2023-03-29T21:08:55.894Z,5.50
2023-03-29T21:11:23.629Z,5.33
2023-03-29T21:13:52.798Z,5.40
2023-03-29T21:16:22.199Z,5.30
2023-03-29T21:18:50.131Z,5.30
2023-03-29T21:21:17.998Z,5.45
2023-03-29T21:23:45.770Z,5.32
2023-03-29T21:26:13.525Z,5.60
2023-03-29T21:28:42.334Z,5.53
2023-03-29T21:31:10.642Z,5.40
2023-03-29T21:33:39.724Z,5.47
2023-03-29T21:36:08.276Z,5.53
2023-03-29T21:38:38.578Z,5.30
2023-03-29T21:41:06.869Z,5.50
2023-03-29T21:43:34.630Z,5.32
2023-03-29T21:46:02.510Z,6.07
2023-03-29T21:48:30.219Z,5.10
2023-03-29T21:50:59.385Z,5.40
2023-03-29T21:53:27.285Z,5.30
2023-03-29T21:55:55.494Z,5.18
2023-03-29T21:58:23.344Z,5.50
2023-03-29T22:00:51.486Z,4.93
2023-03-29T22:03:19.470Z,5.07
2023-03-29T22:05:56.914Z,5.65
2023-03-29T22:08:26.960Z,5.40
2023-03-29T22:10:56.858Z,5.40
2023-03-29T22:13:26.109Z,5.50
2023-03-29T22:15:59.100Z,5.93
2023-03-29T22:18:28.067Z,5.40
2023-03-29T22:20:55.977Z,5.53
2023-03-29T22:23:24.895Z,4.90
2023-03-29T22:25:54.382Z,4.80
2023-03-29T22:28:22.251Z,4.83
2023-03-29T22:30:49.952Z,5.18
2023-03-29T22:33:17.730Z,5.53
2023-03-29T22:35:45.634Z,4.55
2023-03-29T22:38:13.365Z,4.75
2023-03-29T22:40:41.516Z,4.50
2023-03-29T22:43:11.001Z,4.38
2023-03-29T22:45:38.752Z,4.87
2023-03-29T22:48:07.363Z,4.70
2023-03-29T22:50:35.201Z,4.20
2023-03-29T22:53:02.966Z,4.20
2023-03-29T22:55:30.750Z,4.23
2023-03-29T22:57:58.479Z,4.50
2023-03-29T23:00:27.676Z,4.10
2023-03-29T23:02:55.431Z,4.50
2023-03-29T23:05:23.598Z,4.60
2023-03-29T23:07:51.493Z,4.35
2023-03-29T23:10:19.564Z,4.50
2023-03-29T23:12:49.094Z,4.78
2023-03-29T23:15:18.075Z,4.40
2023-03-29T23:17:47.411Z,4.97
2023-03-29T23:20:16.142Z,4.40
2023-03-29T23:25:11.924Z,4.63
2023-03-29T23:27:39.649Z,4.32
2023-03-29T23:30:08.832Z,4.47
2023-03-29T23:32:36.621Z,4.30
2023-03-29T23:35:06.515Z,4.03
2023-03-29T23:37:34.240Z,4.60
2023-03-29T23:40:01.989Z,4.03
2023-03-29T23:42:30.835Z,3.70
2023-03-29T23:44:58.478Z,3.60
2023-03-29T23:47:28.009Z,3.70
2023-03-29T23:49:55.744Z,3.87
2023-03-29T23:52:24.908Z,4.20
2023-03-29T23:54:52.711Z,3.67
2023-03-29T23:57:21.378Z,3.65
2023-03-29T23:59:52.725Z,3.90
